Time;durP1;ratioP1;P1;durP2;ratioP2;P2;SDS_P1;SDS_P2;PMS_P1;PMS_P2;Temp;Humidity;BMP_temperature;BMP_pressure;BME280_temperature;BME280_humidity;BME280_pressure;Samples;Min_cycle;Max_cycle;Signal;HPM_P1;HPM_P2
2023/12/09 00:01:51;;;;;;;0.67;0.67;;;;;;;4.80;85.62;95219.28;5133032;27;20431;-55
2023/12/09 00:04:19;;;;;;;0.80;0.67;;;;;;;4.83;91.59;95210.13;5132405;27;20462;-55
2023/12/09 00:06:48;;;;;;;0.50;0.40;;;;;;;4.99;92.41;95217.22;5132835;27;20445;-55
2023/12/09 00:09:18;;;;;;;4.10;0.33;;;;;;;4.35;88.99;95213.16;5132496;27;20435;-56
2023/12/09 00:11:47;;;;;;;0.80;0.80;;;;;;;4.36;90.96;95191.13;5132685;27;20942;-55
2023/12/09 00:14:16;;;;;;;0.60;0.60;;;;;;;4.45;92.68;95210.75;5132682;27;20439;-56
2023/12/09 00:16:46;;;;;;;2.20;0.63;;;;;;;4.53;89.70;95214.81;5132373;27;20474;-55
2023/12/09 00:19:14;;;;;;;0.87;0.50;;;;;;;4.89;89.55;95217.03;5132771;27;20431;-56
2023/12/09 00:21:43;;;;;;;0.40;0.30;;;;;;;5.24;87.58;95216.88;5132758;27;20521;-56
2023/12/09 00:24:12;;;;;;;0.40;0.30;;;;;;;5.24;86.30;95204.50;5132047;27;20479;-56
2023/12/09 00:26:40;;;;;;;0.67;0.40;;;;;;;5.49;85.63;95222.53;5132679;27;20507;-56
2023/12/09 00:29:09;;;;;;;0.50;0.50;;;;;;;5.47;84.71;95219.31;5131829;27;20435;-56
2023/12/09 00:31:37;;;;;;;0.40;0.23;;;;;;;5.53;83.73;95226.25;5132767;27;20760;-56
2023/12/09 00:34:07;;;;;;;0.40;0.40;;;;;;;5.60;84.02;95221.63;5132322;27;20566;-56
2023/12/09 00:36:36;;;;;;;0.50;0.50;;;;;;;5.42;83.81;95185.88;5132231;27;20517;-55
2023/12/09 00:39:05;;;;;;;0.40;0.40;;;;;;;5.67;83.13;95223.06;5132093;27;20436;-56
2023/12/09 00:41:33;;;;;;;1.03;1.03;;;;;;;5.64;84.08;95230.66;5132202;27;20482;-56
2023/12/09 00:44:02;;;;;;;8.23;1.07;;;;;;;5.29;83.73;95232.72;5132215;27;20434;-56
2023/12/09 00:46:30;;;;;;;0.40;0.37;;;;;;;5.22;84.49;95235.47;5131634;27;20442;-56
2023/12/09 00:48:59;;;;;;;1.00;0.50;;;;;;;5.01;84.77;95236.97;5132019;28;20478;-56
2023/12/09 00:51:29;;;;;;;0.93;0.83;;;;;;;4.60;86.49;95233.84;5132306;27;20452;-56
2023/12/09 00:53:58;;;;;;;1.03;1.03;;;;;;;4.35;90.08;95232.31;5132673;27;20434;-56
2023/12/09 00:56:26;;;;;;;0.40;0.30;;;;;;;4.22;93.73;95226.53;5131368;28;20517;-55
2023/12/09 00:59:02;;;;;;;1.37;0.50;;;;;;;4.07;94.12;95218.34;5132606;28;20799;-55
2023/12/09 01:01:33;;;;;;;0.40;0.30;;;;;;;4.13;94.57;95228.72;5132070;28;20930;-56
2023/12/09 01:04:03;;;;;;;1.40;1.30;;;;;;;4.46;100.00;95230.69;5119137;28;20473;-56
2023/12/09 01:06:33;;;;;;;2.00;0.87;;;;;;;4.32;93.06;95221.50;5119017;28;20984;-56
2023/12/09 01:09:02;;;;;;;0.87;0.40;;;;;;;4.30;92.49;95226.19;5132486;28;20513;-56
2023/12/09 01:11:31;;;;;;;0.40;0.30;;;;;;;4.34;93.48;95229.94;5131673;28;20492;-56
2023/12/09 01:13:59;;;;;;;0.60;0.40;;;;;;;4.27;95.01;95218.78;5132103;27;20434;-57
2023/12/09 01:16:28;;;;;;;0.67;0.67;;;;;;;4.26;96.64;95227.66;5131875;27;20562;-56
2023/12/09 01:18:56;;;;;;;0.70;0.60;;;;;;;4.28;93.75;95222.97;5132023;28;20438;-56
2023/12/09 01:21:25;;;;;;;0.87;0.87;;;;;;;4.66;95.45;95228.44;5132495;28;20474;-56
2023/12/09 01:23:55;;;;;;;2.10;0.60;;;;;;;4.95;90.28;95222.16;5131916;27;20473;-56
2023/12/09 01:26:23;;;;;;;0.90;0.90;;;;;;;4.72;90.96;95213.59;5131692;27;20446;-56
2023/12/09 01:28:52;;;;;;;0.40;0.40;;;;;;;4.82;90.28;95216.41;5135798;27;20541;-56
2023/12/09 01:31:20;;;;;;;0.63;0.43;;;;;;;5.21;89.49;95219.97;5136283;27;20448;-56
2023/12/09 01:33:49;;;;;;;0.30;0.20;;;;;;;5.30;87.83;95176.50;5136000;27;20435;-56
2023/12/09 01:36:18;;;;;;;0.60;0.43;;;;;;;5.57;85.87;95209.75;5136299;27;20541;-56
2023/12/09 01:38:46;;;;;;;0.30;0.20;;;;;;;5.58;86.21;95205.31;5135076;27;20573;-56
2023/12/09 01:41:16;;;;;;;0.30;0.20;;;;;;;5.81;87.02;95199.06;5135424;27;20965;-56
2023/12/09 01:43:48;;;;;;;0.40;0.30;;;;;;;5.46;86.12;95191.47;5108540;27;20473;-56
2023/12/09 01:46:18;;;;;;;0.50;0.30;;;;;;;5.53;87.27;95190.25;5135084;27;20445;-56
2023/12/09 01:48:48;;;;;;;0.30;0.20;;;;;;;5.73;85.75;95202.91;5135095;27;20434;-56
2023/12/09 01:51:18;;;;;;;0.50;0.30;;;;;;;5.86;85.96;95175.50;5135322;27;20471;-56
2023/12/09 01:53:47;;;;;;;0.30;0.30;;;;;;;5.94;86.80;95178.50;5135728;27;20809;-56
2023/12/09 01:56:18;;;;;;;0.50;0.40;;;;;;;6.20;89.33;95183.03;5135434;27;20438;-56
2023/12/09 01:58:47;;;;;;;0.30;0.20;;;;;;;6.14;86.41;95186.66;5136017;27;20434;-56
2023/12/09 02:01:17;;;;;;;0.50;0.50;;;;;;;5.57;83.90;95114.31;5134797;27;20462;-56
2023/12/09 02:03:45;;;;;;;0.63;0.63;;;;;;;5.63;83.91;95190.41;5135620;27;20434;-56
2023/12/09 02:06:14;;;;;;;0.40;0.30;;;;;;;5.39;85.56;95185.56;5135395;27;20450;-56
2023/12/09 02:08:43;;;;;;;0.80;0.80;;;;;;;5.12;86.29;95195.91;5135477;27;20426;-57
2023/12/09 02:11:25;;;;;;;0.97;0.93;;;;;;;4.32;91.86;95201.31;5135695;27;20434;-56
2023/12/09 02:13:59;;;;;;;1.00;1.00;;;;;;;4.20;97.19;95195.28;5135263;27;20438;-56
2023/12/09 02:16:34;;;;;;;0.77;0.77;;;;;;;4.32;98.26;95201.31;5135017;27;20953;-56
2023/12/09 02:19:08;;;;;;;0.67;0.50;;;;;;;4.39;98.52;95211.66;5134608;27;20441;-56
2023/12/09 02:21:57;;;;;;;0.60;0.50;;;;;;;4.67;96.15;95192.50;5134881;27;20545;-56
2023/12/09 02:24:27;;;;;;;0.40;0.40;;;;;;;4.89;96.86;95193.41;5135234;27;20487;-56
2023/12/09 02:27:02;;;;;;;0.60;0.60;;;;;;;4.81;97.90;95209.53;5134425;27;20463;-56
2023/12/09 02:29:36;;;;;;;2.77;0.87;;;;;;;4.74;98.01;95212.31;5134907;27;20434;-55
2023/12/09 02:32:08;;;;;;;1.00;0.63;;;;;;;4.85;97.00;95200.19;5134236;27;20517;-55
2023/12/09 02:34:40;;;;;;;2.70;0.97;;;;;;;4.42;97.64;95116.75;5134794;27;20434;-55
2023/12/09 02:37:11;;;;;;;2.50;0.60;;;;;;;5.14;98.56;95193.84;5134308;27;20430;-55
2023/12/09 02:39:41;;;;;;;1.60;0.63;;;;;;;5.17;98.64;95205.69;5134512;27;20434;-55
2023/12/09 02:42:11;;;;;;;0.73;0.73;;;;;;;5.02;99.20;95209.69;5134050;27;20466;-56
2023/12/09 02:44:42;;;;;;;0.67;0.67;;;;;;;5.12;99.76;95216.94;5133959;27;20442;-56
2023/12/09 02:47:14;;;;;;;1.37;0.60;;;;;;;5.04;97.84;95219.94;5134358;27;20453;-56
2023/12/09 02:49:43;;;;;;;0.53;0.53;;;;;;;5.12;96.43;95209.03;5133505;27;20496;-55
2023/12/09 02:52:12;;;;;;;0.63;0.63;;;;;;;5.16;96.23;95219.88;5134182;27;20442;-56
2023/12/09 02:54:42;;;;;;;0.50;0.43;;;;;;;5.31;96.98;95215.69;5133883;27;20466;-55
2023/12/09 02:57:10;;;;;;;0.43;0.40;;;;;;;5.10;96.97;95206.66;5134658;27;20434;-56
2023/12/09 02:59:39;;;;;;;0.70;0.53;;;;;;;4.60;98.42;95210.22;5133348;27;20934;-55
2023/12/09 03:02:08;;;;;;;1.73;0.80;;;;;;;3.96;100.00;95119.53;5134190;27;20558;-55
2023/12/09 03:04:37;;;;;;;0.50;0.43;;;;;;;4.65;100.00;95205.88;5133789;27;20495;-55
2023/12/09 03:07:05;;;;;;;0.80;0.80;;;;;;;4.33;100.00;95207.31;5134424;27;20499;-56
2023/12/09 03:09:34;;;;;;;1.53;0.67;;;;;;;3.76;100.00;95201.19;5134067;27;20426;-56
2023/12/09 03:12:04;;;;;;;1.50;1.20;;;;;;;3.81;100.00;95199.47;5133494;27;20447;-56
2023/12/09 03:14:33;;;;;;;0.80;0.80;;;;;;;3.65;100.00;95207.22;5133996;27;20437;-56
2023/12/09 03:17:02;;;;;;;2.40;1.13;;;;;;;3.54;100.00;95198.31;5133812;27;20941;-56
2023/12/09 03:19:30;;;;;;;0.80;0.67;;;;;;;3.95;100.00;95202.63;5133807;27;20914;-56
2023/12/09 03:22:00;;;;;;;1.53;0.87;;;;;;;4.16;100.00;95193.34;5133520;27;20466;-56
2023/12/09 03:24:28;;;;;;;1.00;0.90;;;;;;;4.30;100.00;95150.88;5134047;27;20546;-55
2023/12/09 03:26:57;;;;;;;0.40;0.37;;;;;;;5.05;100.00;95206.59;5133668;27;20823;-55
2023/12/09 03:29:27;;;;;;;0.60;0.60;;;;;;;5.24;100.00;95203.75;5133612;27;20491;-55
2023/12/09 03:31:56;;;;;;;1.30;0.40;;;;;;;5.34;100.00;95203.91;5133107;27;20442;-55
2023/12/09 03:34:24;;;;;;;0.97;0.60;;;;;;;4.20;99.38;95136.81;5133074;27;20442;-56
2023/12/09 03:36:53;;;;;;;0.53;0.40;;;;;;;4.62;100.00;95201.09;5133657;27;20811;-56
2023/12/09 03:39:21;;;;;;;0.57;0.50;;;;;;;4.75;100.00;95211.31;5133619;27;20440;-56
2023/12/09 03:41:50;;;;;;;0.40;0.40;;;;;;;3.71;100.00;95186.16;5132851;27;20497;-55
2023/12/09 03:44:19;;;;;;;1.00;0.90;;;;;;;3.65;100.00;95210.66;5132936;27;20518;-56
2023/12/09 03:46:49;;;;;;;1.90;0.70;;;;;;;3.74;100.00;95209.25;5132791;27;21103;-56
2023/12/09 03:49:17;;;;;;;0.40;0.40;;;;;;;3.78;100.00;95220.91;5132475;27;20470;-56
2023/12/09 03:51:46;;;;;;;0.60;0.57;;;;;;;4.00;100.00;95228.19;5133142;27;20994;-56
2023/12/09 03:54:15;;;;;;;0.50;0.47;;;;;;;3.93;100.00;95222.25;5132660;27;20434;-56
2023/12/09 03:56:44;;;;;;;1.83;0.40;;;;;;;4.14;100.00;95229.50;5131485;27;20511;-56
2023/12/09 03:59:13;;;;;;;1.80;0.83;;;;;;;4.31;100.00;95220.69;5131968;27;20832;-56
2023/12/09 04:01:48;;;;;;;1.13;1.13;;;;;;;4.50;100.00;95229.97;5106059;27;20515;-58
2023/12/09 04:04:17;;;;;;;0.73;0.73;;;;;;;4.44;100.00;95227.50;5132492;27;20438;-56
2023/12/09 04:06:46;;;;;;;0.87;0.87;;;;;;;4.53;100.00;95218.22;5132490;27;20430;-56
2023/12/09 04:09:16;;;;;;;0.70;0.30;;;;;;;4.69;99.46;95225.34;5132696;27;20438;-55
2023/12/09 04:11:44;;;;;;;0.57;0.57;;;;;;;4.48;98.53;95226.78;5133195;27;20439;-56
2023/12/09 04:14:13;;;;;;;0.90;0.80;;;;;;;4.44;99.12;95223.06;5132876;27;20423;-56
2023/12/09 04:16:43;;;;;;;0.80;0.50;;;;;;;4.12;100.00;95181.75;5132734;27;20816;-55
2023/12/09 04:19:13;;;;;;;0.50;0.47;;;;;;;4.65;100.00;95226.88;5132468;27;20461;-56
2023/12/09 04:21:42;;;;;;;0.80;0.60;;;;;;;4.62;100.00;95232.56;5132825;27;20525;-55
2023/12/09 04:24:11;;;;;;;1.37;0.57;;;;;;;4.54;100.00;95234.75;5131798;27;20439;-55
2023/12/09 04:26:39;;;;;;;5.40;0.50;;;;;;;4.19;100.00;95232.25;5132563;27;20439;-55
2023/12/09 04:29:08;;;;;;;1.20;0.90;;;;;;;4.41;100.00;95230.59;5132381;27;20480;-55
2023/12/09 04:31:37;;;;;;;1.00;1.00;;;;;;;3.89;100.00;95227.16;5132697;27;20450;-55
2023/12/09 04:34:06;;;;;;;1.83;1.47;;;;;;;4.13;100.00;95227.91;5105603;27;20438;-55
2023/12/09 04:36:36;;;;;;;0.93;0.93;;;;;;;3.84;100.00;95167.53;5132392;27;20477;-55
2023/12/09 04:39:05;;;;;;;1.67;1.57;;;;;;;3.59;100.00;95214.16;5132735;27;20446;-56
2023/12/09 04:41:34;;;;;;;1.13;1.13;;;;;;;3.49;100.00;95232.28;5132344;27;20442;-56
2023/12/09 04:44:02;;;;;;;1.13;1.13;;;;;;;3.41;100.00;95237.06;5132299;27;20546;-56
2023/12/09 04:46:32;;;;;;;1.40;1.30;;;;;;;3.71;100.00;95241.19;5132183;27;20457;-56
2023/12/09 04:49:00;;;;;;;1.23;0.90;;;;;;;3.96;100.00;95213.91;5131149;28;20488;-56
2023/12/09 04:51:29;;;;;;;0.77;0.77;;;;;;;4.36;100.00;95230.47;5132011;27;20470;-55
2023/12/09 04:53:59;;;;;;;0.60;0.57;;;;;;;4.54;99.71;95234.75;5132370;28;21003;-55
2023/12/09 04:56:28;;;;;;;0.50;0.47;;;;;;;4.17;96.05;95242.19;5131585;27;20517;-55
2023/12/09 04:58:57;;;;;;;0.60;0.57;;;;;;;4.06;98.28;95248.22;5132640;28;20891;-56
2023/12/09 05:01:26;;;;;;;1.20;1.20;;;;;;;4.08;98.11;95251.41;5132841;27;20447;-55
2023/12/09 05:03:56;;;;;;;2.87;0.90;;;;;;;4.00;97.78;95257.78;5136239;27;20565;-56
2023/12/09 05:06:25;;;;;;;0.40;0.33;;;;;;;3.93;97.54;95262.38;5136365;27;20439;-56
2023/12/09 05:08:53;;;;;;;1.53;1.07;;;;;;;3.88;98.15;95269.31;5123472;27;20496;-56
2023/12/09 05:11:26;;;;;;;0.87;0.87;;;;;;;3.76;98.69;95280.63;5122562;27;20431;-56
2023/12/09 05:13:55;;;;;;;7.80;0.60;;;;;;;3.41;100.00;95277.16;5136264;27;20430;-56
2023/12/09 05:16:23;;;;;;;1.83;1.73;;;;;;;3.05;100.00;95296.44;5136616;27;20434;-56
2023/12/09 05:18:52;;;;;;;15.83;2.70;;;;;;;3.23;100.00;95300.81;5135866;27;20430;-56
2023/12/09 05:21:21;;;;;;;0.93;0.83;;;;;;;3.20;100.00;95306.50;5136397;27;20438;-56
2023/12/09 05:24:02;;;;;;;4.00;1.70;;;;;;;3.27;100.00;95296.72;5136005;27;20473;-56
2023/12/09 05:26:33;;;;;;;1.67;1.57;;;;;;;3.45;100.00;95304.50;5135979;27;20445;-56
2023/12/09 05:29:03;;;;;;;0.60;0.60;;;;;;;3.45;100.00;95312.34;5135703;27;20468;-56
2023/12/09 05:31:31;;;;;;;2.70;0.90;;;;;;;3.34;100.00;95315.75;5135568;27;20506;-56
2023/12/09 05:34:01;;;;;;;2.33;1.17;;;;;;;3.41;100.00;95311.22;5135803;27;20454;-56
2023/12/09 05:36:30;;;;;;;1.43;1.33;;;;;;;3.31;100.00;95295.25;5131673;27;20946;-56
2023/12/09 05:38:58;;;;;;;0.57;0.57;;;;;;;3.44;100.00;95313.38;5135541;27;20442;-56
2023/12/09 05:41:27;;;;;;;7.83;1.27;;;;;;;3.31;100.00;95316.22;5135343;27;20442;-56
2023/12/09 05:43:57;;;;;;;2.70;1.43;;;;;;;3.39;100.00;95315.09;5135424;27;20509;-56
2023/12/09 05:46:26;;;;;;;2.30;1.27;;;;;;;3.42;100.00;95318.03;5135685;27;20469;-56
2023/12/09 05:48:54;;;;;;;2.20;2.10;;;;;;;3.45;100.00;95320.22;5135374;27;20842;-56
2023/12/09 05:51:23;;;;;;;2.63;2.43;;;;;;;3.54;100.00;95313.63;5135517;27;20946;-57
2023/12/09 05:53:52;;;;;;;2.13;2.03;;;;;;;3.59;100.00;95318.22;5135450;27;20947;-57
2023/12/09 05:56:21;;;;;;;2.27;2.17;;;;;;;3.41;100.00;95311.22;5135199;27;20964;-57
2023/12/09 05:58:49;;;;;;;1.53;1.43;;;;;;;3.49;100.00;95310.88;5135717;27;21090;-56
2023/12/09 06:01:19;;;;;;;3.17;2.83;;;;;;;3.46;100.00;95306.09;5135100;27;20899;-56
2023/12/09 06:03:48;;;;;;;10.80;2.93;;;;;;;3.49;100.00;95310.88;5135371;27;20509;-55
2023/12/09 06:06:17;;;;;;;3.90;2.17;;;;;;;3.59;100.00;95315.59;5135101;27;20593;-55
2023/12/09 06:08:45;;;;;;;3.63;3.20;;;;;;;3.58;100.00;95304.28;5135527;27;20449;-56
2023/12/09 06:11:14;;;;;;;3.57;3.27;;;;;;;3.71;100.00;95327.69;5135077;27;20771;-55
2023/12/09 06:13:43;;;;;;;3.30;3.00;;;;;;;3.55;100.00;95330.16;5135070;27;20837;-56
2023/12/09 06:16:19;;;;;;;5.13;4.77;;;;;;;3.67;100.00;95317.84;5133979;27;20548;-56
2023/12/09 06:18:49;;;;;;;4.13;3.87;;;;;;;4.21;100.00;95330.66;5134994;27;20986;-56
2023/12/09 06:21:21;;;;;;;11.37;4.03;;;;;;;4.25;100.00;95312.66;5134961;27;20441;-57
2023/12/09 06:23:50;;;;;;;3.43;2.53;;;;;;;4.24;100.00;95324.16;5134686;27;20477;-56
2023/12/09 06:26:19;;;;;;;3.73;2.33;;;;;;;4.66;97.93;95332.63;5135211;27;20438;-58
2023/12/09 06:28:47;;;;;;;1.60;1.50;;;;;;;4.34;94.15;95262.22;5134844;27;20533;-57
2023/12/09 06:31:16;;;;;;;6.10;1.73;;;;;;;4.77;92.88;95316.88;5134718;27;20442;-58
2023/12/09 06:33:46;;;;;;;3.23;2.00;;;;;;;5.27;91.73;95334.63;5134572;27;20431;-59
2023/12/09 06:36:15;;;;;;;1.80;1.70;;;;;;;5.65;92.08;95326.88;5134354;27;20461;-58
2023/12/09 06:38:43;;;;;;;6.60;3.20;;;;;;;5.75;90.49;95277.06;5134837;27;20435;-58
2023/12/09 06:41:12;;;;;;;1.73;1.63;;;;;;;6.45;88.27;95321.28;5134322;27;20434;-57
2023/12/09 06:43:40;;;;;;;1.27;1.17;;;;;;;6.88;85.00;95326.56;5133887;27;20480;-57
2023/12/09 06:46:09;;;;;;;2.73;1.70;;;;;;;7.71;77.46;95327.97;5134717;27;20439;-58
2023/12/09 06:48:38;;;;;;;2.17;2.07;;;;;;;8.12;74.61;95328.00;5134324;27;20431;-57
2023/12/09 06:51:15;;;;;;;3.00;2.80;;;;;;;8.30;74.46;95324.22;5134287;27;20438;-56
2023/12/09 06:53:44;;;;;;;7.90;2.60;;;;;;;8.37;74.19;95332.72;5134824;27;20908;-57
2023/12/09 06:56:19;;;;;;;5.07;3.97;;;;;;;8.50;74.46;95342.81;5134294;27;20769;-56
2023/12/09 06:58:48;;;;;;;8.93;2.33;;;;;;;8.59;72.98;95322.81;5134917;27;20430;-57
2023/12/09 07:01:23;;;;;;;4.63;4.37;;;;;;;9.02;72.47;95331.47;5134158;27;20441;-57
2023/12/09 07:03:52;;;;;;;3.07;2.50;;;;;;;9.20;70.64;95331.00;5123739;27;20466;-57
2023/12/09 07:06:24;;;;;;;5.20;2.73;;;;;;;9.37;68.55;95324.44;5133299;27;20434;-57
2023/12/09 07:08:53;;;;;;;2.47;1.63;;;;;;;9.84;68.22;95337.47;5134252;27;20525;-58
2023/12/09 07:11:23;;;;;;;3.73;3.60;;;;;;;10.10;67.87;95344.38;5107724;27;20458;-58
2023/12/09 07:13:52;;;;;;;2.83;2.13;;;;;;;10.31;66.21;95337.25;5133237;27;20525;-59
2023/12/09 07:16:20;;;;;;;2.00;1.50;;;;;;;10.46;63.39;95284.22;5134546;27;20435;-59
2023/12/09 07:18:51;;;;;;;2.30;1.60;;;;;;;11.15;61.58;95329.34;5133715;27;20434;-58
2023/12/09 07:21:20;;;;;;;3.13;2.10;;;;;;;11.32;62.59;95324.47;5133893;27;20438;-59
2023/12/09 07:23:50;;;;;;;8.13;3.97;;;;;;;11.38;61.45;95322.59;5133444;27;20513;-58
2023/12/09 07:26:18;;;;;;;3.33;2.83;;;;;;;11.77;60.93;95314.69;5126824;27;20438;-57
2023/12/09 07:28:47;;;;;;;5.07;3.47;;;;;;;12.10;60.27;95317.34;5133206;27;20509;-57
2023/12/09 07:31:16;;;;;;;3.90;3.70;;;;;;;12.12;61.50;95319.72;5134134;27;20434;-55
2023/12/09 07:33:44;;;;;;;3.50;3.20;;;;;;;12.46;61.48;95317.84;5132401;27;20439;-56
2023/12/09 07:36:13;;;;;;;4.23;3.93;;;;;;;12.52;57.78;95316.69;5133162;27;20930;-55
2023/12/09 07:38:42;;;;;;;9.03;2.80;;;;;;;12.68;55.43;95296.88;5133518;27;20495;-56
2023/12/09 07:41:12;;;;;;;2.63;2.43;;;;;;;12.93;53.88;95300.34;5133568;27;20434;-56
2023/12/09 07:43:42;;;;;;;5.57;2.60;;;;;;;13.11;53.82;95313.69;5132683;27;20462;-55
2023/12/09 07:46:11;;;;;;;3.90;3.30;;;;;;;13.17;52.89;95306.44;5133674;27;20438;-56
2023/12/09 07:48:39;;;;;;;2.43;2.23;;;;;;;13.62;52.85;95319.16;5132560;27;20446;-56
2023/12/09 07:51:08;;;;;;;5.80;2.90;;;;;;;13.15;53.06;95311.28;5132606;27;20517;-56
2023/12/09 07:53:37;;;;;;;1.13;1.10;;;;;;;12.49;54.59;95274.75;5106616;27;20439;-57
2023/12/09 07:56:06;;;;;;;3.00;2.60;;;;;;;13.15;53.86;95303.28;5132671;27;20442;-58
2023/12/09 07:58:36;;;;;;;2.47;2.37;;;;;;;13.35;54.30;95325.13;5132347;27;20822;-59
2023/12/09 08:01:05;;;;;;;1.30;1.30;;;;;;;13.54;53.00;95308.34;5132670;27;20435;-60
2023/12/09 08:03:38;;;;;;;1.67;1.57;;;;;;;13.57;51.91;95313.09;5132807;27;20442;-61
2023/12/09 08:06:07;;;;;;;5.47;1.67;;;;;;;12.79;53.38;95300.22;5132970;27;20930;-61
2023/12/09 08:08:36;;;;;;;2.37;1.83;;;;;;;13.27;53.11;95277.03;5132903;27;20466;-61
2023/12/09 08:11:05;;;;;;;2.73;2.63;;;;;;;13.98;51.84;95317.56;5133288;27;20479;-60
2023/12/09 08:13:34;;;;;;;0.93;0.93;;;;;;;13.49;52.50;95313.75;5132988;27;20445;-60
2023/12/09 08:16:05;;;;;;;0.77;0.77;;;;;;;12.17;53.17;95138.25;5132716;27;20841;-60
2023/12/09 08:18:33;;;;;;;1.20;1.20;;;;;;;14.66;51.82;95322.31;5132974;27;20966;-60
2023/12/09 08:21:03;;;;;;;1.43;0.70;;;;;;;14.52;50.35;95313.53;5131754;27;20526;-59
2023/12/09 08:23:31;;;;;;;0.80;0.80;;;;;;;14.87;49.88;95331.56;5119356;27;20427;-59
2023/12/09 08:26:00;;;;;;;0.70;0.53;;;;;;;14.89;49.40;95316.03;5112395;28;20498;-59
2023/12/09 08:28:28;;;;;;;0.90;0.90;;;;;;;15.47;47.91;95312.75;5112594;28;20496;-60
2023/12/09 08:30:57;;;;;;;3.97;1.67;;;;;;;15.48;47.51;95333.06;5123808;27;20937;-59
2023/12/09 08:33:27;;;;;;;1.43;1.33;;;;;;;15.49;47.75;95321.25;5132258;27;20507;-59
2023/12/09 08:35:56;;;;;;;0.80;0.80;;;;;;;14.98;48.68;95330.25;5131838;27;20435;-59
2023/12/09 08:38:24;;;;;;;1.70;1.20;;;;;;;15.19;48.57;95334.13;5132566;27;20441;-58
2023/12/09 08:40:55;;;;;;;0.83;0.80;;;;;;;15.03;48.13;95330.16;5131429;27;20434;-59
2023/12/09 08:43:23;;;;;;;1.70;1.37;;;;;;;16.06;47.12;95317.84;5132157;27;20434;-59
2023/12/09 08:45:52;;;;;;;0.90;0.90;;;;;;;16.86;45.72;95314.25;5132212;27;20481;-59
2023/12/09 08:48:20;;;;;;;1.03;0.60;;;;;;;17.26;45.25;95312.34;5132160;27;20445;-59
2023/12/09 08:50:51;;;;;;;10.93;1.43;;;;;;;16.92;44.94;95315.72;5132336;27;20477;-60
2023/12/09 08:53:19;;;;;;;1.17;0.80;;;;;;;16.44;44.99;95310.25;5131654;27;20930;-60
2023/12/09 08:55:48;;;;;;;1.70;0.90;;;;;;;16.19;47.09;95310.88;5131783;27;20507;-59
2023/12/09 08:58:16;;;;;;;0.90;0.50;;;;;;;17.38;44.41;95294.59;5131711;28;20514;-59
2023/12/09 09:00:45;;;;;;;0.70;0.70;;;;;;;18.92;40.71;95293.75;5131809;27;20508;-59
2023/12/09 09:03:17;;;;;;;2.30;1.00;;;;;;;18.48;42.17;95289.59;5132089;27;20434;-60
2023/12/09 09:05:46;;;;;;;0.73;0.73;;;;;;;18.19;42.50;95282.19;5132152;27;20484;-60
2023/12/09 09:08:16;;;;;;;1.33;1.23;;;;;;;17.42;43.25;95217.84;5132424;27;20438;-59
2023/12/09 09:10:45;;;;;;;1.50;1.40;;;;;;;17.69;43.64;95273.06;5131616;27;20434;-59
2023/12/09 09:13:15;;;;;;;0.70;0.70;;;;;;;18.28;41.31;95263.41;5132165;27;20439;-60
2023/12/09 09:15:43;;;;;;;3.47;0.60;;;;;;;19.08;38.12;95208.00;5131160;27;20434;-59
2023/12/09 09:18:13;;;;;;;1.97;0.50;;;;;;;18.53;39.64;95226.91;5131822;28;20439;-60
2023/12/09 09:20:42;;;;;;;0.80;0.77;;;;;;;18.74;40.21;95268.06;5132155;28;20434;-61
2023/12/09 09:23:12;;;;;;;0.93;0.80;;;;;;;17.96;40.17;95266.63;5131704;28;20496;-59
2023/12/09 09:25:42;;;;;;;1.10;1.10;;;;;;;18.60;39.83;95265.56;5131557;28;20535;-59
2023/12/09 09:28:12;;;;;;;1.80;1.43;;;;;;;18.42;39.18;95258.63;5132267;27;20441;-59
2023/12/09 09:30:40;;;;;;;0.90;0.90;;;;;;;18.45;40.85;95246.47;5131546;27;20434;-59
2023/12/09 09:33:09;;;;;;;1.03;1.00;;;;;;;18.34;38.72;95240.69;5132111;28;20435;-59
2023/12/09 09:35:38;;;;;;;0.83;0.70;;;;;;;18.55;39.09;95252.31;5131827;27;20430;-59
2023/12/09 09:38:07;;;;;;;1.03;0.50;;;;;;;18.53;39.60;95182.06;5132245;27;20926;-59
2023/12/09 09:40:36;;;;;;;1.83;1.73;;;;;;;18.37;39.22;95248.06;5131365;28;20950;-58
2023/12/09 09:43:09;;;;;;;0.73;0.73;;;;;;;18.75;38.71;95240.88;5131906;27;20442;-59
2023/12/09 09:45:39;;;;;;;1.57;0.83;;;;;;;19.01;39.46;95238.88;5132089;27;20484;-61
2023/12/09 09:48:12;;;;;;;1.63;1.30;;;;;;;19.59;38.62;95226.53;5133446;27;20494;-60
2023/12/09 09:50:45;;;;;;;1.93;1.00;;;;;;;19.67;37.02;95223.00;5135477;27;20470;-59
2023/12/09 09:53:17;;;;;;;0.87;0.87;;;;;;;19.99;35.76;95216.06;5135770;27;20426;-60
2023/12/09 09:55:47;;;;;;;0.70;0.63;;;;;;;20.53;35.48;95206.84;5135671;27;20438;-60
2023/12/09 09:58:17;;;;;;;0.87;0.50;;;;;;;20.45;36.38;95204.22;5135078;27;20427;-59
2023/12/09 10:00:46;;;;;;;0.80;0.70;;;;;;;21.00;35.87;95196.41;5135524;27;20483;-59
2023/12/09 10:03:15;;;;;;;0.50;0.50;;;;;;;21.19;34.87;95191.28;5135741;27;20423;-59
2023/12/09 10:05:44;;;;;;;2.97;1.20;;;;;;;20.61;35.48;95192.50;5134891;27;20522;-60
2023/12/09 10:08:12;;;;;;;0.70;0.50;;;;;;;21.31;34.77;95191.25;5135412;27;20442;-60
2023/12/09 10:10:42;;;;;;;0.47;0.37;;;;;;;20.81;35.81;95190.81;5134777;27;20862;-60
2023/12/09 10:13:10;;;;;;;0.93;0.93;;;;;;;20.34;35.99;95195.78;5134803;27;20942;-60
2023/12/09 10:15:40;;;;;;;0.93;0.93;;;;;;;20.05;36.70;95185.16;5134692;27;20511;-59
2023/12/09 10:18:14;;;;;;;4.60;0.50;;;;;;;20.47;35.10;95186.63;5135012;27;20515;-59
2023/12/09 10:20:45;;;;;;;0.63;0.60;;;;;;;20.43;34.33;95188.41;5134982;27;20442;-59
2023/12/09 10:23:16;;;;;;;1.07;1.07;;;;;;;20.16;34.67;95170.94;5134888;27;20435;-58
2023/12/09 10:25:46;;;;;;;0.77;0.53;;;;;;;21.38;34.29;95180.66;5135171;27;20858;-58
2023/12/09 10:28:15;;;;;;;0.67;0.67;;;;;;;21.76;35.07;95176.72;5134291;27;20438;-58
2023/12/09 10:30:46;;;;;;;2.10;0.50;;;;;;;21.09;33.54;95175.56;5134235;27;20439;-59
2023/12/09 10:33:15;;;;;;;0.83;0.70;;;;;;;21.03;34.82;95176.88;5134799;27;20517;-58
2023/12/09 10:35:45;;;;;;;0.60;0.50;;;;;;;21.03;35.42;95170.69;5108025;27;20942;-58
2023/12/09 10:38:16;;;;;;;0.83;0.83;;;;;;;21.30;34.04;95176.19;5134113;27;20438;-57
2023/12/09 10:40:45;;;;;;;1.90;1.40;;;;;;;21.88;34.20;95179.44;5134900;27;20492;-58
2023/12/09 10:43:14;;;;;;;0.80;0.50;;;;;;;22.21;32.49;95174.56;5134921;27;20529;-57
2023/12/09 10:45:45;;;;;;;0.40;0.30;;;;;;;21.96;32.89;95175.81;5134427;27;20473;-57
2023/12/09 10:48:14;;;;;;;4.23;0.80;;;;;;;22.56;31.94;95170.06;5134800;27;20521;-58
2023/12/09 10:50:46;;;;;;;0.57;0.47;;;;;;;22.23;32.47;95171.50;5134426;27;20480;-58
2023/12/09 10:53:14;;;;;;;1.10;1.00;;;;;;;22.21;33.05;95161.06;5133872;27;20445;-58
2023/12/09 10:55:43;;;;;;;0.80;0.60;;;;;;;23.21;31.87;95159.63;5134415;27;20463;-57
2023/12/09 10:58:14;;;;;;;0.40;0.30;;;;;;;23.09;31.11;95163.25;5134295;27;20997;-59
2023/12/09 11:00:46;;;;;;;1.10;1.10;;;;;;;22.47;32.04;95164.03;5134370;27;20442;-58
2023/12/09 11:03:15;;;;;;;0.60;0.60;;;;;;;22.25;32.09;95163.84;5134337;27;20431;-57
2023/12/09 11:05:48;;;;;;;0.60;0.30;;;;;;;22.71;31.54;95166.59;5133717;27;20479;-56
2023/12/09 11:08:17;;;;;;;0.47;0.40;;;;;;;22.72;31.70;95154.66;5134247;27;20462;-57
2023/12/09 11:10:48;;;;;;;0.50;0.43;;;;;;;22.48;32.09;95160.22;5133087;27;20964;-57
2023/12/09 11:13:19;;;;;;;1.13;1.13;;;;;;;22.58;31.42;95154.28;5134476;27;20438;-57
2023/12/09 11:15:49;;;;;;;2.13;1.00;;;;;;;21.83;32.14;95153.44;5133227;27;20447;-57
2023/12/09 11:18:17;;;;;;;0.87;0.87;;;;;;;22.13;31.95;95152.00;5134189;27;20438;-57
2023/12/09 11:20:46;;;;;;;0.50;0.50;;;;;;;22.44;31.79;95126.91;5116548;27;20535;-57
2023/12/09 11:23:15;;;;;;;0.50;0.40;;;;;;;22.36;32.11;95146.00;5126145;27;20438;-57
2023/12/09 11:25:44;;;;;;;1.33;1.23;;;;;;;22.47;31.43;95136.22;5133927;27;20470;-57
2023/12/09 11:28:13;;;;;;;0.60;0.33;;;;;;;21.92;32.09;95143.31;5133352;27;20434;-57
2023/12/09 11:30:44;;;;;;;1.90;1.80;;;;;;;22.38;32.02;95132.94;5133260;27;20942;-57
2023/12/09 11:33:16;;;;;;;0.40;0.40;;;;;;;22.91;32.33;95134.22;5133997;27;20442;-57
2023/12/09 11:35:46;;;;;;;0.50;0.30;;;;;;;22.19;31.58;95130.16;5133164;27;20439;-56
2023/12/09 11:38:16;;;;;;;1.13;1.13;;;;;;;22.57;31.46;95120.28;5133895;27;20529;-57
2023/12/09 11:40:46;;;;;;;0.60;0.40;;;;;;;20.17;33.58;95137.53;5133951;27;20443;-57
2023/12/09 11:43:17;;;;;;;0.83;0.83;;;;;;;21.06;33.34;95133.13;5106362;27;20521;-57
2023/12/09 11:45:46;;;;;;;3.60;0.40;;;;;;;21.50;33.30;95134.03;5132536;27;20491;-58
2023/12/09 11:48:17;;;;;;;0.73;0.67;;;;;;;22.42;32.17;95129.19;5133557;27;20430;-57